sensor_id;sensor_type;location;lat;lon;timestamp;temperature;humidity
26743;DHT22;14341;51.256;22.478;2023-05-07T00:01:40;5.10;99.90
26743;DHT22;14341;51.256;22.478;2023-05-07T00:04:43;5.20;99.90
26743;DHT22;14341;51.256;22.478;2023-05-07T00:07:47;5.10;99.90
26743;DHT22;14341;51.256;22.478;2023-05-07T00:10:52;5.10;99.90
26743;DHT22;14341;51.256;22.478;2023-05-07T00:13:55;5.10;99.90
26743;DHT22;14341;51.256;22.478;2023-05-07T00:16:58;5.10;99.90
26743;DHT22;14341;51.256;22.478;2023-05-07T00:20:02;5.10;99.90
26743;DHT22;14341;51.256;22.478;2023-05-07T00:23:06;5.10;99.90
26743;DHT22;14341;51.256;22.478;2023-05-07T00:26:11;5.10;99.90
26743;DHT22;14341;51.256;22.478;2023-05-07T00:29:15;5.00;99.90
26743;DHT22;14341;51.256;22.478;2023-05-07T00:32:18;5.10;99.90
26743;DHT22;14341;51.256;22.478;2023-05-07T00:35:22;5.10;99.90
26743;DHT22;14341;51.256;22.478;2023-05-07T00:38:25;5.10;99.90
26743;DHT22;14341;51.256;22.478;2023-05-07T00:41:30;5.10;99.90
26743;DHT22;14341;51.256;22.478;2023-05-07T00:44:33;5.00;99.90
26743;DHT22;14341;51.256;22.478;2023-05-07T00:47:36;5.10;99.90
26743;DHT22;14341;51.256;22.478;2023-05-07T00:50:40;5.00;99.90
26743;DHT22;14341;51.256;22.478;2023-05-07T00:53:43;5.00;99.90
26743;DHT22;14341;51.256;22.478;2023-05-07T00:56:48;5.00;99.90
26743;DHT22;14341;51.256;22.478;2023-05-07T00:59:52;5.00;99.90
26743;DHT22;14341;51.256;22.478;2023-05-07T01:02:55;5.00;99.90
26743;DHT22;14341;51.256;22.478;2023-05-07T01:06:00;5.00;99.90
26743;DHT22;14341;51.256;22.478;2023-05-07T01:09:05;4.90;99.90
26743;DHT22;14341;51.256;22.478;2023-05-07T01:12:10;5.00;99.90
26743;DHT22;14341;51.256;22.478;2023-05-07T01:15:14;5.00;99.90
26743;DHT22;14341;51.256;22.478;2023-05-07T01:18:17;5.00;99.90
26743;DHT22;14341;51.256;22.478;2023-05-07T01:21:25;5.00;99.90
26743;DHT22;14341;51.256;22.478;2023-05-07T01:24:33;4.90;99.90
26743;DHT22;14341;51.256;22.478;2023-05-07T01:27:38;4.90;99.90
26743;DHT22;14341;51.256;22.478;2023-05-07T01:30:44;4.90;99.90
26743;DHT22;14341;51.256;22.478;2023-05-07T01:33:51;4.90;99.90
26743;DHT22;14341;51.256;22.478;2023-05-07T01:36:55;4.90;99.90
26743;DHT22;14341;51.256;22.478;2023-05-07T01:40:01;4.90;99.90
26743;DHT22;14341;51.256;22.478;2023-05-07T01:43:05;4.90;99.90
26743;DHT22;14341;51.256;22.478;2023-05-07T01:46:10;4.90;99.90
26743;DHT22;14341;51.256;22.478;2023-05-07T01:49:15;4.90;99.90
26743;DHT22;14341;51.256;22.478;2023-05-07T01:52:18;4.90;99.90
26743;DHT22;14341;51.256;22.478;2023-05-07T01:55:23;4.90;99.90
26743;DHT22;14341;51.256;22.478;2023-05-07T01:58:26;4.80;99.90
26743;DHT22;14341;51.256;22.478;2023-05-07T02:01:29;4.80;99.90
26743;DHT22;14341;51.256;22.478;2023-05-07T02:04:33;4.90;99.90
26743;DHT22;14341;51.256;22.478;2023-05-07T02:07:38;4.90;99.90
26743;DHT22;14341;51.256;22.478;2023-05-07T02:10:43;4.80;99.90
26743;DHT22;14341;51.256;22.478;2023-05-07T02:13:47;4.90;99.90
26743;DHT22;14341;51.256;22.478;2023-05-07T02:16:50;4.80;99.90
26743;DHT22;14341;51.256;22.478;2023-05-07T02:19:54;4.80;99.90
26743;DHT22;14341;51.256;22.478;2023-05-07T02:22:57;4.80;99.90
26743;DHT22;14341;51.256;22.478;2023-05-07T02:26:04;4.80;99.90
26743;DHT22;14341;51.256;22.478;2023-05-07T02:29:08;4.80;99.90
26743;DHT22;14341;51.256;22.478;2023-05-07T02:32:13;4.80;99.90
26743;DHT22;14341;51.256;22.478;2023-05-07T02:35:16;4.80;99.90
26743;DHT22;14341;51.256;22.478;2023-05-07T02:38:20;4.70;99.90
26743;DHT22;14341;51.256;22.478;2023-05-07T02:41:24;4.70;99.90
26743;DHT22;14341;51.256;22.478;2023-05-07T02:44:27;4.70;99.90
26743;DHT22;14341;51.256;22.478;2023-05-07T02:47:33;4.70;99.90
26743;DHT22;14341;51.256;22.478;2023-05-07T02:50:37;4.70;99.90
26743;DHT22;14341;51.256;22.478;2023-05-07T02:53:40;4.70;99.90
26743;DHT22;14341;51.256;22.478;2023-05-07T02:56:45;4.70;99.90
26743;DHT22;14341;51.256;22.478;2023-05-07T02:59:48;4.70;99.90
26743;DHT22;14341;51.256;22.478;2023-05-07T03:02:55;4.70;99.90
26743;DHT22;14341;51.256;22.478;2023-05-07T03:05:58;4.70;99.90
26743;DHT22;14341;51.256;22.478;2023-05-07T03:09:02;4.70;99.90
26743;DHT22;14341;51.256;22.478;2023-05-07T03:12:07;4.70;99.90
26743;DHT22;14341;51.256;22.478;2023-05-07T03:15:10;4.70;99.90
26743;DHT22;14341;51.256;22.478;2023-05-07T03:18:14;4.70;99.90
26743;DHT22;14341;51.256;22.478;2023-05-07T03:21:18;4.60;99.90
26743;DHT22;14341;51.256;22.478;2023-05-07T03:24:21;4.70;99.90
26743;DHT22;14341;51.256;22.478;2023-05-07T03:27:26;4.60;99.90
26743;DHT22;14341;51.256;22.478;2023-05-07T03:30:29;4.60;99.90
26743;DHT22;14341;51.256;22.478;2023-05-07T03:33:33;4.60;99.90
26743;DHT22;14341;51.256;22.478;2023-05-07T03:36:37;4.60;99.90
26743;DHT22;14341;51.256;22.478;2023-05-07T03:39:43;4.50;99.90
26743;DHT22;14341;51.256;22.478;2023-05-07T03:42:48;4.60;99.90
26743;DHT22;14341;51.256;22.478;2023-05-07T03:45:53;4.60;99.90
26743;DHT22;14341;51.256;22.478;2023-05-07T03:49:00;4.60;99.90
26743;DHT22;14341;51.256;22.478;2023-05-07T03:52:04;4.60;99.90
26743;DHT22;14341;51.256;22.478;2023-05-07T03:55:09;4.70;99.90
26743;DHT22;14341;51.256;22.478;2023-05-07T03:58:17;4.70;99.90
26743;DHT22;14341;51.256;22.478;2023-05-07T04:01:21;4.60;99.90
26743;DHT22;14341;51.256;22.478;2023-05-07T04:04:25;4.60;99.90
26743;DHT22;14341;51.256;22.478;2023-05-07T04:07:29;4.60;99.90
26743;DHT22;14341;51.256;22.478;2023-05-07T04:10:32;4.60;99.90
26743;DHT22;14341;51.256;22.478;2023-05-07T04:13:41;4.60;99.90
26743;DHT22;14341;51.256;22.478;2023-05-07T04:16:44;4.70;99.90
26743;DHT22;14341;51.256;22.478;2023-05-07T04:19:48;4.60;99.90
26743;DHT22;14341;51.256;22.478;2023-05-07T04:22:53;4.60;99.90
26743;DHT22;14341;51.256;22.478;2023-05-07T04:25:58;4.50;99.90
26743;DHT22;14341;51.256;22.478;2023-05-07T04:29:10;4.50;99.90
26743;DHT22;14341;51.256;22.478;2023-05-07T04:32:13;4.60;99.90
26743;DHT22;14341;51.256;22.478;2023-05-07T04:35:17;4.60;99.90
26743;DHT22;14341;51.256;22.478;2023-05-07T04:38:20;4.60;99.90
26743;DHT22;14341;51.256;22.478;2023-05-07T04:41:27;4.50;99.90
26743;DHT22;14341;51.256;22.478;2023-05-07T04:44:32;4.60;99.90
26743;DHT22;14341;51.256;22.478;2023-05-07T04:47:36;4.50;99.90
26743;DHT22;14341;51.256;22.478;2023-05-07T04:50:39;4.50;99.90
26743;DHT22;14341;51.256;22.478;2023-05-07T04:53:43;4.60;99.90
26743;DHT22;14341;51.256;22.478;2023-05-07T04:56:47;4.60;99.90
26743;DHT22;14341;51.256;22.478;2023-05-07T04:59:52;4.50;99.90
26743;DHT22;14341;51.256;22.478;2023-05-07T05:02:55;4.60;99.90
26743;DHT22;14341;51.256;22.478;2023-05-07T05:05:59;4.60;99.90
26743;DHT22;14341;51.256;22.478;2023-05-07T05:09:06;4.60;99.90
26743;DHT22;14341;51.256;22.478;2023-05-07T05:12:11;4.60;99.90
26743;DHT22;14341;51.256;22.478;2023-05-07T05:15:15;4.60;99.90
26743;DHT22;14341;51.256;22.478;2023-05-07T05:18:18;4.60;99.90
26743;DHT22;14341;51.256;22.478;2023-05-07T05:21:22;4.60;99.90
26743;DHT22;14341;51.256;22.478;2023-05-07T05:24:30;4.50;99.90
26743;DHT22;14341;51.256;22.478;2023-05-07T05:27:35;4.50;99.90
26743;DHT22;14341;51.256;22.478;2023-05-07T05:30:41;4.50;99.90
26743;DHT22;14341;51.256;22.478;2023-05-07T05:33:44;4.50;99.90
26743;DHT22;14341;51.256;22.478;2023-05-07T05:36:48;4.60;99.90
26743;DHT22;14341;51.256;22.478;2023-05-07T05:39:51;4.60;99.90
26743;DHT22;14341;51.256;22.478;2023-05-07T05:42:56;4.50;99.90
26743;DHT22;14341;51.256;22.478;2023-05-07T05:46:01;4.50;99.90
26743;DHT22;14341;51.256;22.478;2023-05-07T05:49:06;4.50;99.90
26743;DHT22;14341;51.256;22.478;2023-05-07T05:52:12;4.50;99.90
26743;DHT22;14341;51.256;22.478;2023-05-07T05:55:16;4.60;99.90
26743;DHT22;14341;51.256;22.478;2023-05-07T05:58:20;4.70;99.90
26743;DHT22;14341;51.256;22.478;2023-05-07T06:01:31;4.70;99.90
26743;DHT22;14341;51.256;22.478;2023-05-07T06:04:36;4.70;99.90
26743;DHT22;14341;51.256;22.478;2023-05-07T06:07:40;4.70;99.90
26743;DHT22;14341;51.256;22.478;2023-05-07T06:10:43;4.70;99.90
26743;DHT22;14341;51.256;22.478;2023-05-07T06:13:47;4.80;99.90
26743;DHT22;14341;51.256;22.478;2023-05-07T06:16:52;4.80;99.90
26743;DHT22;14341;51.256;22.478;2023-05-07T06:19:56;4.70;99.90
26743;DHT22;14341;51.256;22.478;2023-05-07T06:22:59;4.70;99.90
26743;DHT22;14341;51.256;22.478;2023-05-07T06:26:04;4.70;99.90
26743;DHT22;14341;51.256;22.478;2023-05-07T06:29:16;4.80;99.90
26743;DHT22;14341;51.256;22.478;2023-05-07T06:32:21;4.80;99.90
26743;DHT22;14341;51.256;22.478;2023-05-07T06:35:26;4.90;99.90
26743;DHT22;14341;51.256;22.478;2023-05-07T06:38:29;4.90;99.90
26743;DHT22;14341;51.256;22.478;2023-05-07T06:41:33;4.90;99.90
26743;DHT22;14341;51.256;22.478;2023-05-07T06:44:44;5.00;99.90
26743;DHT22;14341;51.256;22.478;2023-05-07T06:47:56;5.00;99.90
26743;DHT22;14341;51.256;22.478;2023-05-07T06:51:00;5.00;99.90
26743;DHT22;14341;51.256;22.478;2023-05-07T06:54:17;5.00;99.90
26743;DHT22;14341;51.256;22.478;2023-05-07T06:57:21;5.10;99.90
26743;DHT22;14341;51.256;22.478;2023-05-07T07:00:26;5.10;99.90
26743;DHT22;14341;51.256;22.478;2023-05-07T07:03:32;5.10;99.90
26743;DHT22;14341;51.256;22.478;2023-05-07T07:06:36;5.10;99.90
26743;DHT22;14341;51.256;22.478;2023-05-07T07:09:44;5.10;99.90
26743;DHT22;14341;51.256;22.478;2023-05-07T07:12:50;5.10;99.90
26743;DHT22;14341;51.256;22.478;2023-05-07T07:15:55;5.30;99.90
26743;DHT22;14341;51.256;22.478;2023-05-07T07:19:00;5.30;99.90
26743;DHT22;14341;51.256;22.478;2023-05-07T07:22:04;5.30;99.90
26743;DHT22;14341;51.256;22.478;2023-05-07T07:25:08;5.30;99.90
26743;DHT22;14341;51.256;22.478;2023-05-07T07:28:13;5.20;99.90
26743;DHT22;14341;51.256;22.478;2023-05-07T07:31:18;5.20;99.90
26743;DHT22;14341;51.256;22.478;2023-05-07T07:34:25;5.20;99.90
26743;DHT22;14341;51.256;22.478;2023-05-07T07:37:29;5.20;99.90
26743;DHT22;14341;51.256;22.478;2023-05-07T07:40:34;5.10;99.90
26743;DHT22;14341;51.256;22.478;2023-05-07T07:43:40;5.20;99.90
26743;DHT22;14341;51.256;22.478;2023-05-07T07:46:44;5.30;99.90
26743;DHT22;14341;51.256;22.478;2023-05-07T07:49:49;5.40;99.90
26743;DHT22;14341;51.256;22.478;2023-05-07T07:52:53;5.50;99.90
26743;DHT22;14341;51.256;22.478;2023-05-07T07:55:56;5.50;99.90
26743;DHT22;14341;51.256;22.478;2023-05-07T07:59:03;5.60;99.90
26743;DHT22;14341;51.256;22.478;2023-05-07T08:02:08;5.70;99.90
26743;DHT22;14341;51.256;22.478;2023-05-07T08:05:13;5.70;99.90
26743;DHT22;14341;51.256;22.478;2023-05-07T08:08:18;5.70;99.90
26743;DHT22;14341;51.256;22.478;2023-05-07T08:11:22;5.80;99.90
26743;DHT22;14341;51.256;22.478;2023-05-07T08:14:27;5.80;99.90
26743;DHT22;14341;51.256;22.478;2023-05-07T08:17:31;5.70;99.90
26743;DHT22;14341;51.256;22.478;2023-05-07T08:20:36;5.80;99.90
26743;DHT22;14341;51.256;22.478;2023-05-07T08:23:44;5.70;99.90
26743;DHT22;14341;51.256;22.478;2023-05-07T08:26:47;5.80;99.90
26743;DHT22;14341;51.256;22.478;2023-05-07T08:29:51;5.70;99.90
26743;DHT22;14341;51.256;22.478;2023-05-07T08:32:56;5.80;99.90
26743;DHT22;14341;51.256;22.478;2023-05-07T08:36:02;5.70;99.90
26743;DHT22;14341;51.256;22.478;2023-05-07T08:39:05;5.70;99.90
26743;DHT22;14341;51.256;22.478;2023-05-07T08:42:09;5.70;99.90
26743;DHT22;14341;51.256;22.478;2023-05-07T08:45:15;5.70;99.90
26743;DHT22;14341;51.256;22.478;2023-05-07T08:48:22;5.80;99.90
26743;DHT22;14341;51.256;22.478;2023-05-07T08:51:34;5.80;99.90
26743;DHT22;14341;51.256;22.478;2023-05-07T08:54:39;5.90;99.90
26743;DHT22;14341;51.256;22.478;2023-05-07T08:57:44;5.90;99.90
26743;DHT22;14341;51.256;22.478;2023-05-07T09:00:52;6.00;99.90
26743;DHT22;14341;51.256;22.478;2023-05-07T09:03:58;6.00;99.90
26743;DHT22;14341;51.256;22.478;2023-05-07T09:07:05;6.00;99.90
26743;DHT22;14341;51.256;22.478;2023-05-07T09:10:14;6.00;99.90
26743;DHT22;14341;51.256;22.478;2023-05-07T09:13:20;6.00;99.90
26743;DHT22;14341;51.256;22.478;2023-05-07T09:16:25;6.00;99.90
26743;DHT22;14341;51.256;22.478;2023-05-07T09:19:30;5.90;99.90
26743;DHT22;14341;51.256;22.478;2023-05-07T09:22:38;6.00;99.90
26743;DHT22;14341;51.256;22.478;2023-05-07T09:25:46;5.90;99.90
26743;DHT22;14341;51.256;22.478;2023-05-07T09:28:56;5.80;99.90
26743;DHT22;14341;51.256;22.478;2023-05-07T09:32:01;5.90;99.90
26743;DHT22;14341;51.256;22.478;2023-05-07T09:35:08;5.80;99.90
26743;DHT22;14341;51.256;22.478;2023-05-07T09:38:21;5.80;99.90
26743;DHT22;14341;51.256;22.478;2023-05-07T09:41:32;5.90;99.90
26743;DHT22;14341;51.256;22.478;2023-05-07T09:44:48;5.70;99.90
26743;DHT22;14341;51.256;22.478;2023-05-07T09:47:57;5.70;99.90
26743;DHT22;14341;51.256;22.478;2023-05-07T09:51:03;5.80;99.90
26743;DHT22;14341;51.256;22.478;2023-05-07T09:54:10;5.80;99.90
26743;DHT22;14341;51.256;22.478;2023-05-07T09:57:19;6.00;99.90
26743;DHT22;14341;51.256;22.478;2023-05-07T10:00:28;6.10;99.90
26743;DHT22;14341;51.256;22.478;2023-05-07T10:03:41;6.20;99.90
26743;DHT22;14341;51.256;22.478;2023-05-07T10:06:46;6.30;99.90
26743;DHT22;14341;51.256;22.478;2023-05-07T10:09:52;6.40;99.90
26743;DHT22;14341;51.256;22.478;2023-05-07T10:13:03;6.50;99.90
26743;DHT22;14341;51.256;22.478;2023-05-07T10:16:15;6.40;99.90
26743;DHT22;14341;51.256;22.478;2023-05-07T10:19:22;6.30;99.90
26743;DHT22;14341;51.256;22.478;2023-05-07T10:22:34;6.20;99.90
26743;DHT22;14341;51.256;22.478;2023-05-07T10:25:42;6.20;99.90
26743;DHT22;14341;51.256;22.478;2023-05-07T10:28:56;6.20;99.90
26743;DHT22;14341;51.256;22.478;2023-05-07T10:35:37;6.40;99.90
26743;DHT22;14341;51.256;22.478;2023-05-07T10:38:41;6.30;99.90
26743;DHT22;14341;51.256;22.478;2023-05-07T10:41:46;6.30;99.90
26743;DHT22;14341;51.256;22.478;2023-05-07T10:44:50;6.40;99.90
26743;DHT22;14341;51.256;22.478;2023-05-07T10:48:07;6.40;99.90
26743;DHT22;14341;51.256;22.478;2023-05-07T10:51:34;6.30;99.90
26743;DHT22;14341;51.256;22.478;2023-05-07T10:55:19;6.40;99.90
26743;DHT22;14341;51.256;22.478;2023-05-07T10:59:33;6.30;99.90
26743;DHT22;14341;51.256;22.478;2023-05-07T11:03:06;6.60;99.90
26743;DHT22;14341;51.256;22.478;2023-05-07T11:06:17;6.70;99.90
26743;DHT22;14341;51.256;22.478;2023-05-07T11:09:59;6.90;99.90
26743;DHT22;14341;51.256;22.478;2023-05-07T11:13:43;6.90;99.90
26743;DHT22;14341;51.256;22.478;2023-05-07T11:17:03;6.80;99.90
26743;DHT22;14341;51.256;22.478;2023-05-07T11:20:08;6.80;99.90
26743;DHT22;14341;51.256;22.478;2023-05-07T11:23:58;6.90;99.90
26743;DHT22;14341;51.256;22.478;2023-05-07T11:27:09;6.80;99.90
26743;DHT22;14341;51.256;22.478;2023-05-07T11:30:17;6.70;99.90
26743;DHT22;14341;51.256;22.478;2023-05-07T11:33:24;6.90;99.90
26743;DHT22;14341;51.256;22.478;2023-05-07T11:36:32;6.80;99.90
26743;DHT22;14341;51.256;22.478;2023-05-07T11:39:38;6.80;99.90
26743;DHT22;14341;51.256;22.478;2023-05-07T11:42:42;6.70;99.90
26743;DHT22;14341;51.256;22.478;2023-05-07T11:45:45;6.70;99.90
26743;DHT22;14341;51.256;22.478;2023-05-07T11:48:50;6.70;99.90
26743;DHT22;14341;51.256;22.478;2023-05-07T11:51:54;6.50;99.90
26743;DHT22;14341;51.256;22.478;2023-05-07T11:54:58;6.50;99.90
26743;DHT22;14341;51.256;22.478;2023-05-07T11:58:03;6.50;99.90
26743;DHT22;14341;51.256;22.478;2023-05-07T12:01:10;6.60;99.90
26743;DHT22;14341;51.256;22.478;2023-05-07T12:04:19;6.60;99.90
26743;DHT22;14341;51.256;22.478;2023-05-07T12:07:24;6.60;99.90
26743;DHT22;14341;51.256;22.478;2023-05-07T12:10:27;6.60;99.90
26743;DHT22;14341;51.256;22.478;2023-05-07T12:13:31;6.70;99.90
26743;DHT22;14341;51.256;22.478;2023-05-07T12:16:34;6.60;99.90
26743;DHT22;14341;51.256;22.478;2023-05-07T12:19:41;6.60;99.90
26743;DHT22;14341;51.256;22.478;2023-05-07T12:22:46;6.50;99.90
26743;DHT22;14341;51.256;22.478;2023-05-07T12:25:51;6.50;99.90
26743;DHT22;14341;51.256;22.478;2023-05-07T12:28:57;6.60;99.90
26743;DHT22;14341;51.256;22.478;2023-05-07T12:32:00;6.60;99.90
26743;DHT22;14341;51.256;22.478;2023-05-07T12:35:09;6.50;99.90
26743;DHT22;14341;51.256;22.478;2023-05-07T12:38:14;6.60;99.90
26743;DHT22;14341;51.256;22.478;2023-05-07T12:41:19;6.70;99.90
26743;DHT22;14341;51.256;22.478;2023-05-07T12:44:30;6.90;99.90
26743;DHT22;14341;51.256;22.478;2023-05-07T12:47:34;7.00;99.90
26743;DHT22;14341;51.256;22.478;2023-05-07T12:50:40;6.80;99.90
26743;DHT22;14341;51.256;22.478;2023-05-07T12:53:45;6.70;99.90
26743;DHT22;14341;51.256;22.478;2023-05-07T12:56:48;6.70;99.90
26743;DHT22;14341;51.256;22.478;2023-05-07T12:59:57;6.90;99.90
26743;DHT22;14341;51.256;22.478;2023-05-07T13:03:01;6.90;99.90
26743;DHT22;14341;51.256;22.478;2023-05-07T13:06:07;7.00;99.90
26743;DHT22;14341;51.256;22.478;2023-05-07T13:09:12;6.70;99.90
26743;DHT22;14341;51.256;22.478;2023-05-07T13:12:15;6.80;99.90
26743;DHT22;14341;51.256;22.478;2023-05-07T13:15:19;6.70;99.90
26743;DHT22;14341;51.256;22.478;2023-05-07T13:18:24;6.60;99.90
26743;DHT22;14341;51.256;22.478;2023-05-07T13:21:30;6.80;99.90
26743;DHT22;14341;51.256;22.478;2023-05-07T13:24:34;6.80;99.90
26743;DHT22;14341;51.256;22.478;2023-05-07T13:27:37;6.70;99.90
26743;DHT22;14341;51.256;22.478;2023-05-07T13:30:41;6.70;99.90
26743;DHT22;14341;51.256;22.478;2023-05-07T13:33:45;6.60;99.90
26743;DHT22;14341;51.256;22.478;2023-05-07T13:36:53;6.70;99.90
26743;DHT22;14341;51.256;22.478;2023-05-07T13:39:57;6.70;99.90
26743;DHT22;14341;51.256;22.478;2023-05-07T13:43:01;6.50;99.90
26743;DHT22;14341;51.256;22.478;2023-05-07T13:46:05;6.60;99.90
26743;DHT22;14341;51.256;22.478;2023-05-07T13:49:10;6.60;99.90
26743;DHT22;14341;51.256;22.478;2023-05-07T13:52:16;6.70;99.90
26743;DHT22;14341;51.256;22.478;2023-05-07T13:55:21;6.80;99.90
26743;DHT22;14341;51.256;22.478;2023-05-07T13:58:25;6.80;99.90
26743;DHT22;14341;51.256;22.478;2023-05-07T14:01:28;6.90;99.90
26743;DHT22;14341;51.256;22.478;2023-05-07T14:04:32;6.90;99.90
26743;DHT22;14341;51.256;22.478;2023-05-07T14:07:37;6.80;99.90
26743;DHT22;14341;51.256;22.478;2023-05-07T14:10:41;6.80;99.90
26743;DHT22;14341;51.256;22.478;2023-05-07T14:13:46;6.90;99.90
26743;DHT22;14341;51.256;22.478;2023-05-07T14:16:49;6.90;99.90
26743;DHT22;14341;51.256;22.478;2023-05-07T14:19:54;6.90;99.90
26743;DHT22;14341;51.256;22.478;2023-05-07T14:22:59;6.90;99.90
26743;DHT22;14341;51.256;22.478;2023-05-07T14:26:04;6.80;99.90
26743;DHT22;14341;51.256;22.478;2023-05-07T14:29:09;6.80;99.90
26743;DHT22;14341;51.256;22.478;2023-05-07T14:32:13;7.00;99.90
26743;DHT22;14341;51.256;22.478;2023-05-07T14:35:17;7.10;99.90
26743;DHT22;14341;51.256;22.478;2023-05-07T14:38:22;7.20;99.90
26743;DHT22;14341;51.256;22.478;2023-05-07T14:41:25;7.10;99.90
26743;DHT22;14341;51.256;22.478;2023-05-07T14:44:29;7.20;99.90
26743;DHT22;14341;51.256;22.478;2023-05-07T14:47:33;7.10;99.90
26743;DHT22;14341;51.256;22.478;2023-05-07T14:50:38;7.20;99.90
26743;DHT22;14341;51.256;22.478;2023-05-07T14:53:45;7.10;99.90
26743;DHT22;14341;51.256;22.478;2023-05-07T14:56:51;7.10;99.90
26743;DHT22;14341;51.256;22.478;2023-05-07T14:59:58;7.00;99.90
26743;DHT22;14341;51.256;22.478;2023-05-07T15:03:06;6.90;99.90
26743;DHT22;14341;51.256;22.478;2023-05-07T15:06:12;6.80;99.90
26743;DHT22;14341;51.256;22.478;2023-05-07T15:09:19;6.90;99.90
26743;DHT22;14341;51.256;22.478;2023-05-07T15:12:37;7.10;99.90
26743;DHT22;14341;51.256;22.478;2023-05-07T15:15:44;7.00;99.90
26743;DHT22;14341;51.256;22.478;2023-05-07T15:18:49;7.20;99.90
26743;DHT22;14341;51.256;22.478;2023-05-07T15:21:58;7.10;99.90
26743;DHT22;14341;51.256;22.478;2023-05-07T15:25:08;7.10;99.90
26743;DHT22;14341;51.256;22.478;2023-05-07T15:28:14;7.00;99.90
26743;DHT22;14341;51.256;22.478;2023-05-07T15:31:18;7.00;99.90
26743;DHT22;14341;51.256;22.478;2023-05-07T15:34:22;6.90;99.90
26743;DHT22;14341;51.256;22.478;2023-05-07T15:37:27;6.80;99.90
26743;DHT22;14341;51.256;22.478;2023-05-07T15:40:32;6.60;99.90
26743;DHT22;14341;51.256;22.478;2023-05-07T15:43:43;6.70;99.90
26743;DHT22;14341;51.256;22.478;2023-05-07T15:46:47;6.70;99.90
26743;DHT22;14341;51.256;22.478;2023-05-07T15:49:50;6.80;99.90
26743;DHT22;14341;51.256;22.478;2023-05-07T15:52:55;6.90;99.90
26743;DHT22;14341;51.256;22.478;2023-05-07T15:56:00;7.20;99.90
26743;DHT22;14341;51.256;22.478;2023-05-07T15:59:04;7.30;99.90
26743;DHT22;14341;51.256;22.478;2023-05-07T16:02:11;7.30;99.90
26743;DHT22;14341;51.256;22.478;2023-05-07T16:05:20;7.30;99.90
26743;DHT22;14341;51.256;22.478;2023-05-07T16:08:23;7.00;99.90
26743;DHT22;14341;51.256;22.478;2023-05-07T16:11:31;6.90;99.90
26743;DHT22;14341;51.256;22.478;2023-05-07T16:14:40;6.90;99.90
26743;DHT22;14341;51.256;22.478;2023-05-07T16:17:51;6.80;99.90
26743;DHT22;14341;51.256;22.478;2023-05-07T16:21:06;6.80;99.90
26743;DHT22;14341;51.256;22.478;2023-05-07T16:24:20;6.90;99.90
26743;DHT22;14341;51.256;22.478;2023-05-07T16:27:24;6.80;99.90
26743;DHT22;14341;51.256;22.478;2023-05-07T16:30:28;6.80;99.90
26743;DHT22;14341;51.256;22.478;2023-05-07T16:33:32;6.50;99.90
26743;DHT22;14341;51.256;22.478;2023-05-07T16:36:36;6.60;99.90
26743;DHT22;14341;51.256;22.478;2023-05-07T16:39:39;6.50;99.90
26743;DHT22;14341;51.256;22.478;2023-05-07T16:42:45;6.50;99.90
26743;DHT22;14341;51.256;22.478;2023-05-07T16:45:52;6.50;99.90
26743;DHT22;14341;51.256;22.478;2023-05-07T16:48:56;6.50;99.90
26743;DHT22;14341;51.256;22.478;2023-05-07T16:52:00;6.50;99.90
26743;DHT22;14341;51.256;22.478;2023-05-07T16:55:04;6.50;99.90
26743;DHT22;14341;51.256;22.478;2023-05-07T16:58:11;6.50;99.90
26743;DHT22;14341;51.256;22.478;2023-05-07T17:01:14;6.50;99.90
26743;DHT22;14341;51.256;22.478;2023-05-07T17:04:20;6.40;99.90
26743;DHT22;14341;51.256;22.478;2023-05-07T17:07:25;6.40;99.90
26743;DHT22;14341;51.256;22.478;2023-05-07T17:10:29;6.30;99.90
26743;DHT22;14341;51.256;22.478;2023-05-07T17:13:34;6.20;99.90
26743;DHT22;14341;51.256;22.478;2023-05-07T17:16:37;6.20;99.90
26743;DHT22;14341;51.256;22.478;2023-05-07T17:19:45;6.20;99.90
26743;DHT22;14341;51.256;22.478;2023-05-07T17:22:51;6.10;99.90
26743;DHT22;14341;51.256;22.478;2023-05-07T17:25:55;6.00;99.90
26743;DHT22;14341;51.256;22.478;2023-05-07T17:29:10;6.10;99.90
26743;DHT22;14341;51.256;22.478;2023-05-07T17:32:32;6.00;99.90
26743;DHT22;14341;51.256;22.478;2023-05-07T17:35:38;6.00;99.90
26743;DHT22;14341;51.256;22.478;2023-05-07T17:38:43;6.00;99.90
26743;DHT22;14341;51.256;22.478;2023-05-07T17:41:49;6.00;99.90
26743;DHT22;14341;51.256;22.478;2023-05-07T17:45:32;6.00;99.90
26743;DHT22;14341;51.256;22.478;2023-05-07T18:13:14;5.80;99.90
26743;DHT22;14341;51.256;22.478;2023-05-07T18:16:17;5.80;99.90
26743;DHT22;14341;51.256;22.478;2023-05-07T18:19:22;5.80;99.90
26743;DHT22;14341;51.256;22.478;2023-05-07T18:22:28;5.70;99.90
26743;DHT22;14341;51.256;22.478;2023-05-07T18:25:32;5.80;99.90
26743;DHT22;14341;51.256;22.478;2023-05-07T18:28:38;5.80;99.90
26743;DHT22;14341;51.256;22.478;2023-05-07T18:31:45;5.70;99.90
26743;DHT22;14341;51.256;22.478;2023-05-07T18:35:03;5.70;99.90
26743;DHT22;14341;51.256;22.478;2023-05-07T18:38:14;5.70;99.90
26743;DHT22;14341;51.256;22.478;2023-05-07T18:41:22;5.70;99.90
26743;DHT22;14341;51.256;22.478;2023-05-07T18:44:31;5.60;99.90
26743;DHT22;14341;51.256;22.478;2023-05-07T18:47:38;5.60;99.90
26743;DHT22;14341;51.256;22.478;2023-05-07T18:50:43;5.60;99.90
26743;DHT22;14341;51.256;22.478;2023-05-07T18:53:47;5.60;99.90
26743;DHT22;14341;51.256;22.478;2023-05-07T18:56:54;5.70;99.90
26743;DHT22;14341;51.256;22.478;2023-05-07T19:00:04;5.60;99.90
26743;DHT22;14341;51.256;22.478;2023-05-07T19:03:11;5.70;99.90
26743;DHT22;14341;51.256;22.478;2023-05-07T19:06:17;5.60;99.90
26743;DHT22;14341;51.256;22.478;2023-05-07T19:09:26;5.50;99.90
26743;DHT22;14341;51.256;22.478;2023-05-07T19:12:34;5.40;99.90
26743;DHT22;14341;51.256;22.478;2023-05-07T19:15:41;5.20;99.90
26743;DHT22;14341;51.256;22.478;2023-05-07T19:18:47;5.10;99.90
26743;DHT22;14341;51.256;22.478;2023-05-07T19:21:53;5.10;99.90
26743;DHT22;14341;51.256;22.478;2023-05-07T19:24:58;5.10;99.90
26743;DHT22;14341;51.256;22.478;2023-05-07T19:28:02;5.10;99.90
26743;DHT22;14341;51.256;22.478;2023-05-07T19:31:08;5.00;99.90
26743;DHT22;14341;51.256;22.478;2023-05-07T19:34:12;4.90;99.90
26743;DHT22;14341;51.256;22.478;2023-05-07T19:37:16;4.80;99.90
26743;DHT22;14341;51.256;22.478;2023-05-07T19:40:21;4.80;99.90
26743;DHT22;14341;51.256;22.478;2023-05-07T19:43:26;4.90;99.90
26743;DHT22;14341;51.256;22.478;2023-05-07T19:46:35;4.90;99.90
26743;DHT22;14341;51.256;22.478;2023-05-07T19:49:42;4.90;99.90
26743;DHT22;14341;51.256;22.478;2023-05-07T19:52:46;4.90;99.90
26743;DHT22;14341;51.256;22.478;2023-05-07T19:56:01;4.90;99.90
26743;DHT22;14341;51.256;22.478;2023-05-07T19:59:04;4.90;99.90
26743;DHT22;14341;51.256;22.478;2023-05-07T20:02:09;4.80;99.90
26743;DHT22;14341;51.256;22.478;2023-05-07T20:05:14;4.80;99.90